Mount Sterling, Missouri
Current Conditions -  °F | °C
As of 5:53 AM on Saturday 25 Oct 2014 (Local Time) from KVIH Reporting Station
Clear Clear  
Wind Chill: 14°   Ceiling: Unl
Heat Index: 14°   Visibility: 7mi
Dew Point: 13°   Wind: 8mph
Humidity: 93%   Direction: 250°WSW
Pressure: 30.02"   Gusts: NA
Location:  38.47°N, 91.63°W
Report Text: KVIH 251053Z AUTO 25007KT 7SM CLR 14/13 A3002 RMK AO2 SLP160 T01440133
Loading
Personal Weather Stations






























Interactive Weather Map
Tropical Storm Tracking
New forecast layout! Learn more

10-Day Weather Forecast

Advertisements
Track Severe Weather on mobile